createdAt,value
2022-08-10T00:01:06.009Z,24.36
2022-08-10T00:03:40.683Z,24.32
2022-08-10T00:06:09.524Z,24.23
2022-08-10T00:08:39.093Z,23.88
2022-08-10T00:11:15.508Z,23.82
2022-08-10T00:13:45.795Z,23.98
2022-08-10T00:16:14.025Z,23.96
2022-08-10T00:18:43.365Z,23.93
2022-08-10T00:21:15.880Z,23.83
2022-08-10T00:23:44.310Z,23.38
2022-08-10T00:26:12.095Z,23.40
2022-08-10T00:28:41.273Z,23.49
2022-08-10T00:31:08.943Z,23.53
2022-08-10T00:33:36.579Z,23.38
2022-08-10T00:36:08.563Z,23.41
2022-08-10T00:38:42.381Z,23.37
2022-08-10T00:41:10.027Z,23.64
2022-08-10T00:43:37.843Z,23.61
2022-08-10T00:46:05.981Z,23.46
2022-08-10T00:48:35.621Z,23.35
2022-08-10T00:51:03.285Z,23.40
2022-08-10T00:53:35.107Z,23.19
2022-08-10T00:57:14.591Z,23.27
2022-08-10T00:58:56.318Z,23.19
2022-08-10T01:02:08.652Z,23.21
2022-08-10T01:04:58.579Z,23.35
2022-08-10T01:07:05.243Z,23.32
2022-08-10T01:09:36.501Z,23.26
2022-08-10T01:12:39.092Z,23.14
2022-08-10T01:14:59.236Z,23.36
2022-08-10T01:17:50.296Z,23.45
2022-08-10T01:20:30.269Z,23.36
2022-08-10T01:23:13.865Z,23.21
2022-08-10T01:26:10.935Z,22.95
2022-08-10T01:28:46.073Z,22.85
2022-08-10T01:31:16.604Z,23.01
2022-08-10T01:34:02.389Z,22.99
2022-08-10T01:36:32.531Z,23.01
2022-08-10T01:39:01.274Z,23.06
2022-08-10T01:41:41.829Z,23.20
2022-08-10T01:44:15.749Z,23.18
2022-08-10T01:46:46.580Z,23.20
2022-08-10T01:49:16.211Z,23.15
2022-08-10T01:51:45.251Z,23.07
2022-08-10T01:54:16.605Z,22.99
2022-08-10T01:56:47.742Z,22.98
2022-08-10T01:59:18.635Z,22.97
2022-08-10T02:01:50.617Z,22.89
2022-08-10T02:04:18.878Z,22.84
2022-08-10T02:06:52.762Z,22.91
2022-08-10T02:09:25.122Z,22.83
2022-08-10T02:12:07.690Z,22.96
2022-08-10T02:14:37.717Z,22.78
2022-08-10T02:17:58.664Z,22.80
2022-08-10T02:20:00.141Z,22.77
2022-08-10T02:22:37.993Z,22.89
2022-08-10T02:25:07.109Z,22.77
2022-08-10T02:27:35.062Z,22.79
2022-08-10T02:30:02.805Z,22.87
2022-08-10T02:32:36.565Z,22.89
2022-08-10T02:35:13.285Z,22.74
2022-08-10T02:37:50.576Z,22.80
2022-08-10T02:45:02.254Z,22.72
2022-08-10T02:45:20.849Z,22.51
2022-08-10T02:46:01.682Z,22.70
2022-08-10T02:48:32.755Z,22.61
2022-08-10T02:51:01.194Z,22.66
2022-08-10T02:53:55.100Z,22.76
2022-08-10T02:56:24.310Z,22.79
2022-08-10T02:58:54.815Z,22.71
2022-08-10T03:01:23.519Z,22.63
2022-08-10T03:03:57.256Z,22.68
2022-08-10T03:06:28.799Z,22.64
2022-08-10T03:08:56.717Z,22.57
2022-08-10T03:12:37.892Z,22.45
2022-08-10T03:16:45.662Z,22.49
2022-08-10T03:20:33.398Z,22.46
2022-08-10T03:22:06.593Z,22.39
2022-08-10T03:24:34.297Z,22.40
2022-08-10T03:27:02.030Z,22.41
2022-08-10T03:30:29.697Z,22.40
2022-08-10T03:32:25.608Z,22.47
2022-08-10T03:35:01.184Z,22.39
2022-08-10T03:37:32.995Z,22.20
2022-08-10T03:40:00.680Z,22.13
2022-08-10T03:42:28.540Z,22.23
2022-08-10T03:44:57.716Z,22.38
2022-08-10T03:47:25.710Z,22.41
2022-08-10T03:49:55.508Z,22.36
2022-08-10T03:52:23.116Z,22.22
2022-08-10T03:54:51.679Z,22.20
2022-08-10T03:57:22.460Z,22.10
2022-08-10T03:59:50.399Z,22.03
2022-08-10T04:02:44.653Z,21.93
2022-08-10T04:05:21.275Z,21.90
2022-08-10T04:07:48.883Z,21.83
2022-08-10T04:10:17.141Z,21.73
2022-08-10T04:12:46.412Z,21.65
2022-08-10T04:15:14.162Z,21.61
2022-08-10T04:18:03.293Z,14.93
2022-08-10T04:20:35.222Z,21.66
2022-08-10T04:23:03.818Z,21.85
2022-08-10T04:25:31.714Z,21.86
2022-08-10T04:27:59.286Z,21.92
2022-08-10T04:30:29.869Z,21.95
2022-08-10T04:33:02.270Z,21.93
2022-08-10T04:35:31.585Z,21.93
2022-08-10T04:38:05.378Z,21.83
2022-08-10T04:40:33.594Z,21.71
2022-08-10T04:43:10.457Z,21.51
2022-08-10T04:45:49.649Z,21.35
2022-08-10T04:48:43.135Z,21.31
2022-08-10T04:51:16.916Z,21.45
2022-08-10T04:54:05.362Z,21.50
2022-08-10T04:56:38.063Z,21.38
2022-08-10T04:59:06.740Z,21.58
2022-08-10T05:02:22.357Z,21.70
2022-08-10T05:04:35.447Z,21.95
2022-08-10T05:07:09.173Z,22.06
2022-08-10T05:10:01.474Z,22.23
2022-08-10T05:12:26.584Z,22.52
2022-08-10T05:14:54.605Z,22.72
2022-08-10T05:17:22.787Z,22.86
2022-08-10T05:20:04.119Z,22.97
2022-08-10T05:22:37.199Z,23.30
2022-08-10T05:25:05.851Z,23.33
2022-08-10T05:27:34.282Z,23.28
2022-08-10T05:30:03.563Z,23.12
2022-08-10T05:32:32.119Z,22.98
2022-08-10T05:35:00.297Z,23.01
2022-08-10T05:38:09.920Z,23.06
2022-08-10T05:40:22.697Z,23.09
2022-08-10T05:42:50.965Z,23.45
2022-08-10T05:45:21.645Z,23.45
2022-08-10T05:48:55.623Z,23.72
2022-08-10T05:50:38.247Z,23.65
2022-08-10T05:54:02.863Z,23.41
2022-08-10T05:55:56.245Z,23.25
2022-08-10T05:58:24.341Z,23.10
2022-08-10T06:00:54.568Z,23.17
2022-08-10T06:03:26.434Z,23.23
2022-08-10T06:05:54.508Z,23.18
2022-08-10T06:08:24.874Z,23.32
2022-08-10T06:12:23.308Z,23.69
2022-08-10T06:14:13.355Z,22.05
2022-08-10T06:16:44.335Z,23.11
2022-08-10T06:19:15.462Z,23.34
2022-08-10T06:21:53.675Z,23.08
2022-08-10T06:24:30.700Z,23.39
2022-08-10T06:27:06.108Z,23.50
2022-08-10T06:29:37.801Z,23.45
2022-08-10T06:32:06.165Z,23.34
2022-08-10T06:34:36.049Z,23.17
2022-08-10T06:37:04.503Z,23.19
2022-08-10T06:39:37.066Z,23.27
2022-08-10T06:42:18.814Z,23.12
2022-08-10T06:44:54.672Z,22.87
2022-08-10T06:47:27.481Z,23.05
2022-08-10T06:49:59.993Z,23.05
2022-08-10T06:52:29.308Z,23.39
2022-08-10T06:55:00.984Z,23.18
2022-08-10T06:57:34.931Z,23.08
2022-08-10T07:00:03.437Z,22.98
2022-08-10T07:02:37.570Z,23.24
2022-08-10T07:05:07.615Z,23.29
2022-08-10T07:07:37.817Z,23.24
2022-08-10T07:10:05.956Z,22.37
2022-08-10T07:12:35.253Z,23.26
2022-08-10T07:15:06.463Z,23.19
2022-08-10T07:17:39.252Z,23.44
2022-08-10T07:20:20.151Z,23.61
2022-08-10T07:23:11.272Z,23.27
2022-08-10T07:25:41.586Z,23.25
2022-08-10T07:28:15.426Z,22.98
2022-08-10T07:30:47.425Z,23.09
2022-08-10T07:33:15.929Z,23.33
2022-08-10T07:35:46.251Z,23.27
2022-08-10T07:38:17.370Z,23.19
2022-08-10T07:40:45.368Z,23.70
2022-08-10T07:43:14.675Z,23.79
2022-08-10T07:45:43.016Z,23.47
2022-08-10T07:48:11.310Z,23.67
2022-08-10T07:50:41.164Z,24.03
2022-08-10T07:53:10.667Z,24.10
2022-08-10T07:56:04.958Z,23.85
2022-08-10T07:58:32.734Z,24.04
2022-08-10T08:01:01.493Z,23.97
2022-08-10T08:03:30.124Z,23.90
2022-08-10T08:06:03.233Z,23.93
2022-08-10T08:08:34.408Z,24.32
2022-08-10T08:11:03.324Z,24.35
2022-08-10T08:13:32.388Z,24.09
2022-08-10T08:16:18.486Z,22.99
2022-08-10T08:19:16.285Z,24.68
2022-08-10T08:24:06.557Z,24.70
2022-08-10T08:24:33.391Z,24.72
2022-08-10T08:27:05.334Z,24.89
2022-08-10T08:29:35.423Z,24.90
2022-08-10T08:32:06.887Z,25.18
2022-08-10T08:34:35.108Z,25.14
2022-08-10T08:37:04.129Z,24.94
2022-08-10T08:39:33.374Z,24.97
2022-08-10T08:42:16.695Z,24.93
2022-08-10T08:44:50.792Z,24.60
2022-08-10T08:48:03.179Z,24.95
2022-08-10T08:50:18.412Z,24.80
2022-08-10T08:52:51.112Z,25.15
2022-08-10T08:56:04.703Z,25.29
2022-08-10T08:58:17.444Z,25.39
2022-08-10T09:00:50.630Z,25.05
2022-08-10T09:03:26.234Z,25.20
2022-08-10T09:05:59.602Z,25.23
2022-08-10T09:08:43.206Z,25.03
2022-08-10T09:11:15.001Z,25.06
2022-08-10T09:13:43.398Z,25.28
2022-08-10T09:16:18.356Z,25.51
2022-08-10T09:18:49.481Z,25.54
2022-08-10T09:21:21.989Z,25.64
2022-08-10T09:24:05.294Z,25.81
2022-08-10T09:26:39.217Z,25.78
2022-08-10T09:29:13.266Z,25.49
2022-08-10T09:32:55.995Z,25.92
2022-08-10T09:36:22.289Z,24.90
2022-08-10T09:37:39.990Z,26.12
2022-08-10T09:40:59.007Z,26.07
2022-08-10T09:43:25.330Z,26.29
2022-08-10T09:45:55.659Z,26.87
2022-08-10T09:48:27.294Z,26.61
2022-08-10T09:51:34.986Z,26.67
2022-08-10T09:53:49.736Z,26.30
2022-08-10T09:56:25.454Z,25.84
2022-08-10T09:59:26.622Z,26.19
2022-08-10T10:02:00.339Z,26.46
2022-08-10T10:04:39.020Z,26.52
2022-08-10T10:07:07.833Z,26.84
2022-08-10T10:09:36.766Z,26.74
2022-08-10T10:12:09.925Z,26.96
2022-08-10T10:15:01.577Z,27.01
2022-08-10T10:17:31.764Z,26.79
2022-08-10T10:20:08.036Z,26.88
2022-08-10T10:22:43.872Z,27.07
2022-08-10T10:25:19.834Z,27.23
2022-08-10T10:27:50.084Z,27.06
2022-08-10T10:30:18.682Z,26.86
2022-08-10T10:32:52.431Z,27.18
2022-08-10T10:35:28.602Z,27.23
2022-08-10T10:38:01.173Z,27.40
2022-08-10T10:40:38.475Z,26.78
2022-08-10T10:43:10.206Z,26.88
2022-08-10T10:45:50.795Z,26.76
2022-08-10T10:48:23.914Z,26.94
2022-08-10T10:51:05.947Z,26.74
2022-08-10T10:53:40.520Z,27.54
2022-08-10T10:56:16.739Z,27.53
2022-08-10T10:58:48.445Z,27.83
2022-08-10T11:01:18.742Z,26.23
2022-08-10T11:03:50.488Z,27.08
2022-08-10T11:06:39.223Z,27.30
2022-08-10T11:09:12.572Z,27.95
2022-08-10T11:12:02.858Z,27.81
2022-08-10T11:14:34.655Z,27.20
2022-08-10T11:17:03.526Z,27.28
2022-08-10T11:20:02.227Z,27.63
2022-08-10T11:22:36.763Z,27.72
2022-08-10T11:25:10.079Z,27.62
2022-08-10T11:27:41.666Z,27.83
2022-08-10T11:30:12.906Z,28.30
2022-08-10T11:32:46.841Z,26.68
2022-08-10T11:35:20.093Z,27.61
2022-08-10T11:38:30.078Z,27.81
2022-08-10T11:40:44.367Z,27.61
2022-08-10T11:43:24.110Z,27.97
2022-08-10T11:45:55.552Z,28.16
2022-08-10T11:48:53.150Z,28.18
2022-08-10T11:51:21.502Z,28.83
2022-08-10T11:53:51.982Z,28.70
2022-08-10T11:56:22.194Z,28.30
2022-08-10T11:59:16.712Z,28.61
2022-08-10T12:01:47.892Z,28.91
2022-08-10T12:04:15.764Z,29.17
2022-08-10T12:06:59.075Z,29.04
2022-08-10T12:10:05.795Z,29.34
2022-08-10T12:12:17.697Z,29.42
2022-08-10T12:14:47.966Z,29.10
2022-08-10T12:17:19.176Z,29.22
2022-08-10T12:20:02.470Z,29.81
2022-08-10T12:22:32.810Z,29.18
2022-08-10T12:25:03.026Z,29.88
2022-08-10T12:27:31.829Z,28.85
2022-08-10T12:30:01.082Z,28.67
2022-08-10T12:32:31.039Z,29.05
2022-08-10T12:35:04.596Z,29.11
2022-08-10T12:37:33.230Z,29.56
2022-08-10T12:40:33.844Z,29.75
2022-08-10T12:44:04.493Z,29.55
2022-08-10T12:45:43.375Z,29.85
2022-08-10T12:48:11.986Z,29.57
2022-08-10T12:50:42.503Z,29.86
2022-08-10T12:53:12.909Z,29.38
2022-08-10T12:55:43.133Z,29.99
2022-08-10T12:58:57.261Z,29.48
2022-08-10T13:01:17.579Z,29.28
2022-08-10T13:04:23.620Z,29.32
2022-08-10T13:06:38.913Z,29.22
2022-08-10T13:09:14.109Z,29.48
2022-08-10T13:12:36.531Z,29.69
2022-08-10T13:14:35.858Z,29.95
2022-08-10T13:17:04.851Z,30.53
2022-08-10T13:19:38.654Z,30.57
2022-08-10T13:22:23.557Z,29.57
2022-08-10T13:24:55.789Z,28.89
2022-08-10T13:28:01.408Z,29.62
2022-08-10T13:30:33.633Z,29.80
2022-08-10T13:33:06.035Z,29.87
2022-08-10T13:35:34.256Z,29.98
2022-08-10T13:38:02.946Z,30.39
2022-08-10T13:40:31.298Z,30.93
2022-08-10T13:43:06.717Z,31.10
2022-08-10T13:45:34.870Z,30.69
2022-08-10T13:48:15.638Z,30.37
2022-08-10T13:50:45.837Z,30.45
2022-08-10T13:53:15.679Z,30.09
2022-08-10T13:55:46.038Z,30.00
2022-08-10T13:58:25.522Z,30.37
2022-08-10T14:00:56.785Z,30.01
2022-08-10T14:03:24.604Z,30.07
2022-08-10T14:05:53.376Z,30.11
2022-08-10T14:08:22.675Z,30.14
2022-08-10T14:11:08.716Z,30.40
2022-08-10T14:13:52.386Z,30.08
2022-08-10T14:16:22.314Z,30.13
2022-08-10T14:18:50.981Z,30.07
2022-08-10T14:21:18.608Z,30.34
2022-08-10T14:23:53.321Z,30.48
2022-08-10T14:26:22.403Z,30.30
2022-08-10T14:28:58.173Z,30.32
2022-08-10T14:31:28.206Z,29.94
2022-08-10T14:33:57.636Z,30.40
2022-08-10T14:36:28.105Z,30.18
2022-08-10T14:38:55.774Z,30.33
2022-08-10T14:42:03.365Z,30.74
2022-08-10T14:44:28.450Z,30.79
2022-08-10T14:46:59.762Z,30.48
2022-08-10T14:49:27.590Z,30.78
2022-08-10T14:51:59.290Z,30.37
2022-08-10T14:54:29.822Z,30.45
2022-08-10T14:56:58.472Z,30.82
2022-08-10T15:00:23.019Z,30.53
2022-08-10T15:02:40.142Z,30.43
2022-08-10T15:05:08.906Z,30.13
2022-08-10T15:07:37.114Z,30.33
2022-08-10T15:10:06.092Z,30.86
2022-08-10T15:12:37.126Z,29.87
2022-08-10T15:15:09.455Z,29.65
2022-08-10T15:17:42.402Z,29.38
2022-08-10T15:20:15.240Z,30.35
2022-08-10T15:22:46.406Z,30.53
2022-08-10T15:25:19.155Z,30.69
2022-08-10T15:27:55.043Z,30.35
2022-08-10T15:30:30.228Z,29.92
2022-08-10T15:33:57.879Z,29.20
2022-08-10T15:36:33.515Z,30.36
2022-08-10T15:39:03.564Z,29.90
2022-08-10T15:41:59.325Z,30.10
2022-08-10T15:44:24.593Z,30.38
2022-08-10T15:47:02.490Z,30.59
2022-08-10T15:49:33.412Z,30.33
2022-08-10T15:52:03.802Z,30.07
2022-08-10T15:54:33.757Z,30.01
2022-08-10T15:57:02.846Z,29.59
2022-08-10T15:59:31.297Z,29.84
2022-08-10T16:02:03.871Z,29.93
2022-08-10T16:04:45.872Z,30.34
2022-08-10T16:07:17.773Z,30.48
2022-08-10T16:10:10.674Z,30.45
2022-08-10T16:12:39.035Z,30.20
2022-08-10T16:15:08.206Z,29.56
2022-08-10T16:17:54.464Z,29.65
2022-08-10T16:20:28.522Z,29.77
2022-08-10T16:22:59.843Z,29.60
2022-08-10T16:25:48.307Z,29.50
2022-08-10T16:28:23.289Z,29.70
2022-08-10T16:30:54.590Z,29.54
2022-08-10T16:33:53.110Z,29.24
2022-08-10T16:36:15.763Z,29.24
2022-08-10T16:38:44.033Z,29.35
2022-08-10T16:42:00.702Z,29.80
2022-08-10T16:44:00.237Z,29.82
2022-08-10T16:46:28.116Z,29.45
2022-08-10T16:48:58.303Z,29.71
2022-08-10T16:51:26.507Z,29.81
2022-08-10T16:53:55.770Z,29.61
2022-08-10T16:56:24.757Z,29.43
2022-08-10T16:58:53.573Z,29.60
2022-08-10T17:01:21.728Z,29.64
2022-08-10T17:04:06.733Z,29.36
2022-08-10T17:06:38.336Z,29.28
2022-08-10T17:09:07.660Z,29.00
2022-08-10T17:11:36.434Z,29.17
2022-08-10T17:14:04.817Z,28.93
2022-08-10T17:16:35.157Z,28.96
2022-08-10T17:19:03.283Z,29.05
2022-08-10T17:21:31.924Z,29.16
2022-08-10T17:24:02.438Z,29.37
2022-08-10T17:26:37.039Z,29.19
2022-08-10T17:29:10.211Z,28.97
2022-08-10T17:31:58.909Z,28.78
2022-08-10T17:34:30.618Z,28.80
2022-08-10T17:36:59.269Z,28.58
2022-08-10T17:39:30.284Z,28.38
2022-08-10T17:42:01.028Z,28.22
2022-08-10T17:44:31.806Z,28.24
2022-08-10T17:46:59.578Z,28.15
2022-08-10T17:49:39.015Z,26.60
2022-08-10T17:52:09.463Z,27.85
2022-08-10T17:54:39.868Z,28.03
2022-08-10T17:57:09.853Z,27.92
2022-08-10T17:59:37.782Z,27.90
2022-08-10T18:02:07.245Z,27.78
2022-08-10T18:04:41.510Z,27.81
2022-08-10T18:07:17.204Z,27.79
2022-08-10T18:09:49.742Z,27.93
2022-08-10T18:12:19.965Z,27.96
2022-08-10T18:14:53.264Z,27.86
2022-08-10T18:17:22.446Z,27.87
2022-08-10T18:19:52.654Z,27.92
2022-08-10T18:22:20.446Z,27.93
2022-08-10T18:24:49.712Z,27.71
2022-08-10T18:27:17.682Z,27.74
2022-08-10T18:29:47.844Z,27.77
2022-08-10T18:32:17.966Z,27.49
2022-08-10T18:34:47.901Z,27.47
2022-08-10T18:37:19.943Z,27.47
2022-08-10T18:39:50.166Z,27.43
2022-08-10T18:42:18.410Z,27.49
2022-08-10T18:44:50.483Z,27.54
2022-08-10T18:47:21.930Z,27.66
2022-08-10T18:49:58.001Z,27.68
2022-08-10T18:52:26.875Z,26.36
2022-08-10T18:55:05.061Z,27.61
2022-08-10T18:58:02.625Z,27.54
2022-08-10T19:00:33.494Z,27.64
2022-08-10T19:03:05.715Z,27.53
2022-08-10T19:05:37.366Z,27.47
2022-08-10T19:08:30.475Z,27.50
2022-08-10T19:11:05.931Z,27.23
2022-08-10T19:13:35.617Z,27.12
2022-08-10T19:16:05.649Z,27.15
2022-08-10T19:18:33.891Z,27.00
2022-08-10T19:21:04.233Z,27.00
2022-08-10T19:23:37.774Z,26.96
2022-08-10T19:26:44.605Z,26.91
2022-08-10T19:30:09.253Z,27.10
2022-08-10T19:32:15.897Z,26.91
2022-08-10T19:34:46.078Z,26.79
2022-08-10T19:37:32.347Z,26.92
2022-08-10T19:40:04.873Z,27.01
2022-08-10T19:42:42.746Z,26.69
2022-08-10T19:45:59.171Z,26.61
2022-08-10T19:48:11.164Z,26.62
2022-08-10T19:50:39.982Z,26.36
2022-08-10T19:53:11.600Z,26.20
2022-08-10T19:55:40.702Z,26.17
2022-08-10T19:58:13.470Z,26.06
2022-08-10T20:00:44.022Z,26.02
2022-08-10T20:03:13.708Z,25.98
2022-08-10T20:06:13.002Z,25.95
2022-08-10T20:08:33.300Z,26.14
2022-08-10T20:11:08.979Z,26.25
2022-08-10T20:14:03.289Z,26.41
2022-08-10T20:16:31.846Z,26.29
2022-08-10T20:19:01.932Z,26.32
2022-08-10T20:21:33.071Z,26.24
2022-08-10T20:24:04.411Z,26.22
2022-08-10T20:26:33.237Z,26.11
2022-08-10T20:29:10.843Z,26.20
2022-08-10T20:31:46.183Z,26.21
2022-08-10T20:34:16.287Z,26.09
2022-08-10T20:36:47.929Z,26.18
2022-08-10T20:39:17.929Z,26.04
2022-08-10T20:41:50.223Z,25.99
2022-08-10T20:44:23.207Z,26.04
2022-08-10T20:46:52.525Z,26.11
2022-08-10T20:49:23.743Z,26.27
2022-08-10T20:51:58.341Z,26.20
2022-08-10T20:54:30.467Z,26.04
2022-08-10T20:57:00.790Z,25.92
2022-08-10T20:59:37.082Z,25.96
2022-08-10T21:02:28.192Z,25.93
2022-08-10T21:04:57.524Z,25.95
2022-08-10T21:08:00.337Z,25.70
2022-08-10T21:10:30.146Z,25.72
2022-08-10T21:13:04.170Z,25.56
2022-08-10T21:15:41.948Z,25.36
2022-08-10T21:18:14.455Z,25.26
2022-08-10T21:20:54.191Z,25.02
2022-08-10T21:23:30.674Z,25.13
2022-08-10T21:26:08.093Z,23.71
2022-08-10T21:28:44.756Z,25.48
2022-08-10T21:31:23.839Z,25.57
2022-08-10T21:33:55.125Z,25.49
2022-08-10T21:36:23.007Z,25.59
2022-08-10T21:38:53.016Z,25.58
2022-08-10T21:41:56.698Z,25.61
2022-08-10T21:44:49.400Z,25.62
2022-08-10T21:48:07.506Z,25.31
2022-08-10T21:50:47.436Z,25.26
2022-08-10T21:53:44.685Z,25.20
2022-08-10T21:56:31.365Z,25.10
2022-08-10T21:59:22.186Z,25.05
2022-08-10T22:02:08.449Z,25.03
2022-08-10T22:04:55.562Z,25.05
2022-08-10T22:07:41.373Z,25.08
2022-08-10T22:10:27.451Z,24.87
2022-08-10T22:13:13.232Z,25.02
2022-08-10T22:16:10.148Z,24.97
2022-08-10T22:19:02.228Z,25.06
2022-08-10T22:21:54.974Z,24.72
2022-08-10T22:24:41.683Z,24.71
2022-08-10T22:27:46.260Z,24.63
2022-08-10T22:30:34.879Z,24.46
2022-08-10T22:33:24.629Z,24.30
2022-08-10T22:36:12.549Z,24.29
2022-08-10T22:39:02.378Z,24.24
2022-08-10T22:41:49.696Z,23.66
2022-08-10T22:44:34.805Z,23.48
2022-08-10T22:47:19.956Z,23.16
2022-08-10T22:49:50.599Z,23.27
2022-08-10T22:52:20.671Z,23.49
2022-08-10T22:55:08.907Z,23.65
2022-08-10T22:57:54.048Z,23.70
2022-08-10T23:00:30.796Z,23.77
2022-08-10T23:03:01.649Z,23.73
2022-08-10T23:05:32.079Z,23.44
2022-08-10T23:08:02.450Z,23.48
2022-08-10T23:10:34.400Z,23.77
2022-08-10T23:13:04.314Z,23.93
2022-08-10T23:15:50.404Z,23.95
2022-08-10T23:18:38.318Z,23.80
2022-08-10T23:21:06.211Z,23.96
2022-08-10T23:23:36.798Z,24.11
2022-08-10T23:26:06.658Z,24.06
2022-08-10T23:28:38.611Z,24.01
2022-08-10T23:31:14.883Z,23.99
2022-08-10T23:33:42.623Z,23.84
2022-08-10T23:36:34.514Z,23.74
2022-08-10T23:39:25.380Z,23.50
2022-08-10T23:41:53.140Z,23.77
2022-08-10T23:44:21.438Z,23.70
2022-08-10T23:46:52.168Z,23.70
2022-08-10T23:49:20.127Z,23.75
2022-08-10T23:51:55.862Z,23.42
2022-08-10T23:54:25.125Z,23.44
2022-08-10T23:57:01.114Z,23.28
2022-08-10T23:59:29.938Z,23.35
